createdAt,value
2018-04-14T00:01:59.112Z,99.90
2018-04-14T00:04:27.363Z,99.90
2018-04-14T00:06:55.617Z,99.90
2018-04-14T00:09:23.880Z,99.90
2018-04-14T00:11:52.905Z,99.90
2018-04-14T00:14:21.157Z,99.90
2018-04-14T00:16:50.189Z,99.90
2018-04-14T00:19:18.446Z,99.90
2018-04-14T00:21:46.702Z,99.90
2018-04-14T00:24:15.722Z,99.90
2018-04-14T00:26:43.981Z,99.90
2018-04-14T00:29:12.235Z,99.90
2018-04-14T00:31:40.484Z,99.90
2018-04-14T00:34:08.745Z,99.90
2018-04-14T00:36:37.009Z,99.90
2018-04-14T00:39:06.023Z,99.90
2018-04-14T00:41:34.286Z,99.90
2018-04-14T00:44:02.546Z,99.90
2018-04-14T00:46:30.814Z,99.90
2018-04-14T00:48:59.069Z,99.90
2018-04-14T00:51:28.088Z,99.90
2018-04-14T00:53:56.354Z,99.90
2018-04-14T00:56:24.610Z,99.90
2018-04-14T00:58:53.627Z,99.90
2018-04-14T01:01:21.885Z,99.90
2018-04-14T01:03:50.149Z,99.90
2018-04-14T01:06:19.180Z,99.90
2018-04-14T01:08:47.438Z,99.90
2018-04-14T01:11:15.689Z,99.90
2018-04-14T01:13:44.717Z,99.90
2018-04-14T01:16:12.977Z,99.90
2018-04-14T01:18:41.234Z,99.90
2018-04-14T01:21:10.249Z,99.90
2018-04-14T01:23:38.579Z,99.90
2018-04-14T01:26:06.832Z,99.90
2018-04-14T01:28:35.089Z,99.90
2018-04-14T01:31:03.348Z,99.90
2018-04-14T01:33:32.380Z,99.90
2018-04-14T01:36:00.639Z,99.90
2018-04-14T01:38:28.892Z,99.90
2018-04-14T01:40:57.921Z,99.90
2018-04-14T01:43:26.178Z,99.90
2018-04-14T01:45:54.444Z,99.90
2018-04-14T01:48:22.703Z,99.90
2018-04-14T01:50:51.726Z,99.90
2018-04-14T01:53:19.990Z,99.90
2018-04-14T01:55:48.244Z,99.90
2018-04-14T01:58:17.270Z,99.90
2018-04-14T02:00:45.523Z,99.90
2018-04-14T02:03:14.552Z,99.90
2018-04-14T02:05:42.806Z,99.90
2018-04-14T02:08:11.050Z,99.90
2018-04-14T02:10:40.078Z,99.90
2018-04-14T02:13:08.326Z,99.90
2018-04-14T02:15:37.360Z,99.90
2018-04-14T02:18:05.617Z,99.90
2018-04-14T02:20:33.891Z,99.90
2018-04-14T02:23:02.143Z,99.90
2018-04-14T02:25:31.187Z,99.90
2018-04-14T02:27:59.434Z,99.90
2018-04-14T02:30:27.698Z,99.90
2018-04-14T02:32:56.728Z,99.90
2018-04-14T02:35:24.974Z,99.90
2018-04-14T02:37:53.241Z,99.90
2018-04-14T02:40:22.264Z,99.90
2018-04-14T02:42:50.524Z,99.90
2018-04-14T02:45:18.780Z,99.90
2018-04-14T02:47:47.812Z,99.90
2018-04-14T02:50:16.071Z,99.90
2018-04-14T02:52:44.343Z,99.90
2018-04-14T02:55:12.603Z,99.90
2018-04-14T02:57:41.628Z,99.90
2018-04-14T03:00:09.885Z,99.90
2018-04-14T03:02:38.153Z,99.90
2018-04-14T03:05:07.179Z,99.90
2018-04-14T03:07:35.433Z,99.90
2018-04-14T03:10:03.687Z,99.90
2018-04-14T03:12:32.712Z,99.90
2018-04-14T03:15:00.964Z,99.90
2018-04-14T03:17:30.007Z,99.90
2018-04-14T03:19:58.263Z,99.90
2018-04-14T03:22:26.507Z,99.90
2018-04-14T03:24:55.543Z,99.90
2018-04-14T03:27:23.834Z,99.90
2018-04-14T03:29:52.124Z,99.90
2018-04-14T03:32:20.428Z,99.90
2018-04-14T03:34:49.492Z,99.90
2018-04-14T03:37:17.768Z,99.90
2018-04-14T03:39:46.057Z,99.90
2018-04-14T03:42:14.322Z,99.90
2018-04-14T03:44:42.604Z,99.90
2018-04-14T03:47:10.884Z,99.90
2018-04-14T03:49:39.173Z,99.90
2018-04-14T03:52:08.225Z,99.90
2018-04-14T03:54:36.520Z,99.90
2018-04-14T03:57:04.803Z,99.90
2018-04-14T03:59:33.112Z,99.90
2018-04-14T04:02:01.406Z,99.90
2018-04-14T04:04:29.690Z,99.90
2018-04-14T04:06:57.964Z,99.90
2018-04-14T04:09:26.240Z,99.90
2018-04-14T04:11:54.522Z,99.90
2018-04-14T04:14:22.806Z,99.90
2018-04-14T04:16:51.124Z,99.90
2018-04-14T04:19:37.721Z,99.90
2018-04-14T04:22:24.447Z,99.90
2018-04-14T04:25:11.304Z,99.90
2018-04-14T04:27:39.609Z,99.90
2018-04-14T04:30:08.723Z,99.90
2018-04-14T04:32:37.792Z,99.90
2018-04-14T04:35:06.075Z,99.90
2018-04-14T04:37:34.389Z,99.90
2018-04-14T04:40:02.673Z,99.90
2018-04-14T04:42:30.980Z,99.90
2018-04-14T04:44:59.264Z,99.90
2018-04-14T04:47:27.575Z,99.90
2018-04-14T04:49:56.626Z,99.90
2018-04-14T04:52:24.916Z,99.90
2018-04-14T04:54:53.193Z,99.90
2018-04-14T04:57:21.494Z,99.90
2018-04-14T04:59:49.772Z,99.90
2018-04-14T05:02:18.853Z,99.90
2018-04-14T05:04:47.144Z,99.90
2018-04-14T05:07:16.192Z,99.90
2018-04-14T05:09:44.467Z,99.90
2018-04-14T05:12:12.754Z,99.90
2018-04-14T05:14:41.024Z,99.90
2018-04-14T05:17:09.299Z,99.90
2018-04-14T05:19:37.583Z,99.90
2018-04-14T05:22:05.858Z,99.90
2018-04-14T05:24:34.145Z,99.90
2018-04-14T05:27:02.415Z,99.90
2018-04-14T05:29:30.705Z,99.90
2018-04-14T05:31:58.976Z,99.90
2018-04-14T05:34:27.275Z,99.90
2018-04-14T05:36:56.325Z,99.90
2018-04-14T05:39:24.615Z,99.90
2018-04-14T05:41:52.885Z,99.90
2018-04-14T05:44:21.156Z,99.90
2018-04-14T05:46:49.487Z,99.90
2018-04-14T05:49:18.545Z,99.90
2018-04-14T05:51:46.833Z,99.90
2018-04-14T05:54:15.136Z,99.90
2018-04-14T05:56:43.421Z,99.90
2018-04-14T05:59:11.701Z,99.90
2018-04-14T06:01:39.972Z,99.90
2018-04-14T06:04:08.272Z,99.90
2018-04-14T06:06:36.560Z,99.90
2018-04-14T06:09:05.659Z,99.90
2018-04-14T06:11:33.962Z,99.90
2018-04-14T06:14:02.284Z,99.90
2018-04-14T06:16:30.588Z,99.90
2018-04-14T06:18:58.880Z,99.90
2018-04-14T06:21:27.160Z,99.90
2018-04-14T06:23:55.436Z,99.90
2018-04-14T06:26:23.711Z,99.90
2018-04-14T06:28:52.003Z,99.90
2018-04-14T06:31:21.076Z,99.90
2018-04-14T06:33:49.404Z,99.90
2018-04-14T06:36:17.637Z,99.90
2018-04-14T06:38:45.916Z,99.90
2018-04-14T06:41:14.191Z,99.90
2018-04-14T06:43:42.472Z,99.90
2018-04-14T06:46:11.552Z,99.90
2018-04-14T06:48:39.843Z,99.90
2018-04-14T06:51:08.149Z,99.90
2018-04-14T06:53:36.439Z,99.90
2018-04-14T06:56:04.739Z,99.90
2018-04-14T06:58:33.022Z,99.90
2018-04-14T07:01:01.326Z,99.90
2018-04-14T07:03:29.624Z,99.90
2018-04-14T07:05:58.675Z,99.90
2018-04-14T07:08:26.974Z,99.90
2018-04-14T07:10:55.277Z,99.90
2018-04-14T07:13:23.623Z,99.90
2018-04-14T07:15:51.927Z,99.90
2018-04-14T07:18:20.989Z,99.90
2018-04-14T07:20:49.304Z,99.90
2018-04-14T07:23:18.360Z,99.90
2018-04-14T07:25:46.652Z,99.90
2018-04-14T07:28:15.730Z,99.90
2018-04-14T07:30:44.035Z,99.90
2018-04-14T07:33:12.346Z,99.90
2018-04-14T07:35:40.638Z,99.90
2018-04-14T07:38:08.928Z,99.90
2018-04-14T07:40:37.216Z,99.90
2018-04-14T07:43:05.500Z,99.90
2018-04-14T07:45:33.797Z,99.90
2018-04-14T07:48:02.082Z,99.90
2018-04-14T07:50:30.397Z,99.90
2018-04-14T07:52:58.689Z,99.90
2018-04-14T07:55:27.012Z,99.90
2018-04-14T07:57:55.308Z,99.90
2018-04-14T08:00:23.631Z,99.90
2018-04-14T08:02:52.696Z,99.90
2018-04-14T08:05:20.991Z,99.90
2018-04-14T08:07:49.274Z,99.90
2018-04-14T08:10:17.611Z,99.90
2018-04-14T08:12:45.891Z,99.90
2018-04-14T08:15:14.165Z,99.90
2018-04-14T08:17:42.466Z,99.90
2018-04-14T08:20:10.767Z,99.90
2018-04-14T08:22:39.812Z,99.90
2018-04-14T08:25:08.107Z,99.90
2018-04-14T08:27:36.386Z,99.90
2018-04-14T08:30:04.659Z,99.90
2018-04-14T08:32:32.910Z,99.90
2018-04-14T08:35:01.171Z,99.90
2018-04-14T08:37:29.492Z,99.90
2018-04-14T08:39:58.455Z,99.90
2018-04-14T08:42:26.726Z,99.90
2018-04-14T08:44:55.007Z,99.90
2018-04-14T08:47:23.290Z,99.90
2018-04-14T08:49:51.519Z,99.90
2018-04-14T08:52:20.542Z,99.90
2018-04-14T08:54:48.815Z,99.90
2018-04-14T08:57:17.083Z,99.90
2018-04-14T08:59:45.345Z,99.90
2018-04-14T09:02:13.637Z,99.90
2018-04-14T09:04:41.937Z,99.90
2018-04-14T09:07:10.203Z,99.90
2018-04-14T09:09:38.459Z,99.90
2018-04-14T09:12:06.735Z,99.90
2018-04-14T09:14:34.983Z,99.90
2018-04-14T09:17:03.243Z,99.90
2018-04-14T09:19:31.502Z,99.90
2018-04-14T09:21:59.756Z,99.90
2018-04-14T09:24:28.024Z,99.90
2018-04-14T09:26:56.296Z,99.90
2018-04-14T09:29:24.585Z,99.90
2018-04-14T09:31:52.843Z,99.90
2018-04-14T09:34:21.115Z,99.90
2018-04-14T09:36:49.385Z,99.90
2018-04-14T09:39:18.416Z,99.90
2018-04-14T09:41:46.673Z,99.90
2018-04-14T09:44:14.933Z,99.90
2018-04-14T09:46:43.970Z,99.90
2018-04-14T09:49:12.230Z,99.90
2018-04-14T09:51:40.482Z,99.90
2018-04-14T09:54:08.765Z,99.90
2018-04-14T09:56:37.054Z,99.90
2018-04-14T09:59:05.350Z,99.90
2018-04-14T10:01:33.614Z,99.90
2018-04-14T10:04:01.872Z,99.90
2018-04-14T10:06:30.137Z,99.90
2018-04-14T10:08:58.391Z,99.90
2018-04-14T10:11:27.429Z,99.90
2018-04-14T10:13:55.680Z,99.90
2018-04-14T10:16:23.945Z,99.90
2018-04-14T10:18:52.201Z,99.90
2018-04-14T10:21:20.467Z,99.90
2018-04-14T10:23:48.745Z,99.90
2018-04-14T10:26:17.017Z,99.90
2018-04-14T10:28:45.268Z,99.90
2018-04-14T10:31:13.561Z,99.90
2018-04-14T10:33:41.819Z,99.90
2018-04-14T10:36:10.080Z,99.90
2018-04-14T10:38:38.330Z,99.90
2018-04-14T10:41:07.374Z,99.90
2018-04-14T10:43:35.645Z,99.90
2018-04-14T10:46:03.927Z,99.90
2018-04-14T10:48:32.192Z,99.90
2018-04-14T10:51:00.448Z,99.90
2018-04-14T10:53:28.718Z,99.90
2018-04-14T10:55:56.988Z,99.90
2018-04-14T10:58:25.252Z,99.90
2018-04-14T11:00:54.286Z,99.40
2018-04-14T11:03:22.554Z,99.40
2018-04-14T11:05:50.814Z,99.90
2018-04-14T11:08:19.083Z,98.90
2018-04-14T11:10:47.350Z,99.90
2018-04-14T11:13:16.391Z,99.90
2018-04-14T11:15:44.641Z,99.90
2018-04-14T11:18:12.900Z,99.20
2018-04-14T11:20:41.924Z,98.40
2018-04-14T11:23:10.185Z,98.50
2018-04-14T11:25:38.459Z,95.80
2018-04-14T11:28:06.715Z,96.40
2018-04-14T11:30:34.983Z,97.50
2018-04-14T11:33:04.006Z,98.50
2018-04-14T11:35:32.274Z,98.50
2018-04-14T11:38:00.526Z,98.40
2018-04-14T11:40:28.789Z,97.60
2018-04-14T11:42:57.055Z,96.80
2018-04-14T11:45:25.322Z,97.20
2018-04-14T11:47:53.580Z,91.90
2018-04-14T11:50:21.846Z,92.80
2018-04-14T11:52:50.101Z,94.30
2018-04-14T11:55:18.364Z,95.80
2018-04-14T11:57:47.382Z,94.50
2018-04-14T12:00:15.655Z,94.40
2018-04-14T12:02:43.904Z,95.00
2018-04-14T12:05:12.935Z,93.00
2018-04-14T12:07:41.193Z,93.10
2018-04-14T12:10:09.490Z,92.00
2018-04-14T12:12:37.745Z,93.00
2018-04-14T12:15:06.011Z,92.20
2018-04-14T12:17:34.274Z,92.60
2018-04-14T12:20:03.301Z,92.30
2018-04-14T12:22:31.565Z,92.30
2018-04-14T12:24:59.833Z,92.30
2018-04-14T12:27:28.093Z,92.10
2018-04-14T12:29:56.350Z,90.00
2018-04-14T12:32:24.616Z,88.40
2018-04-14T12:34:52.876Z,84.80
2018-04-14T12:37:21.138Z,80.60
2018-04-14T12:39:49.389Z,76.00
2018-04-14T12:42:17.670Z,81.90
2018-04-14T12:44:45.920Z,84.90
2018-04-14T12:47:14.181Z,75.90
2018-04-14T12:49:43.072Z,74.80
2018-04-14T12:52:11.340Z,73.10
2018-04-14T12:54:40.391Z,68.90
2018-04-14T12:57:08.645Z,71.40
2018-04-14T12:59:36.909Z,68.40
2018-04-14T13:02:05.942Z,68.20
2018-04-14T13:04:34.188Z,68.10
2018-04-14T13:07:03.059Z,67.80
2018-04-14T13:09:31.305Z,68.50
2018-04-14T13:11:59.570Z,73.20
2018-04-14T13:14:27.842Z,73.10
2018-04-14T13:16:56.095Z,74.90
2018-04-14T13:19:24.350Z,75.50
2018-04-14T13:21:52.619Z,71.80
2018-04-14T13:24:20.902Z,75.40
2018-04-14T13:26:49.919Z,73.30
2018-04-14T13:29:18.181Z,72.60
2018-04-14T13:31:46.441Z,73.80
2018-04-14T13:34:15.473Z,64.10
2018-04-14T13:36:43.749Z,63.90
2018-04-14T13:39:12.015Z,62.50
2018-04-14T13:41:40.273Z,67.10
2018-04-14T13:44:08.545Z,67.30
2018-04-14T13:46:37.670Z,65.20
2018-04-14T13:49:05.945Z,60.70
2018-04-14T13:51:34.201Z,62.50
2018-04-14T13:54:03.813Z,64.60
2018-04-14T13:56:32.076Z,65.60
2018-04-14T13:59:00.792Z,65.70
2018-04-14T14:01:29.081Z,63.70
2018-04-14T14:03:57.339Z,61.60
2018-04-14T14:06:25.601Z,62.00
2018-04-14T14:08:53.856Z,61.80
2018-04-14T14:11:22.900Z,62.80
2018-04-14T14:13:51.151Z,62.80
2018-04-14T14:16:19.417Z,59.50
2018-04-14T14:18:47.659Z,57.90
2018-04-14T14:21:15.924Z,58.20
2018-04-14T14:23:44.164Z,56.70
2018-04-14T14:26:12.418Z,58.80
2018-04-14T14:28:40.688Z,58.30
2018-04-14T14:31:09.698Z,57.30
2018-04-14T14:33:37.979Z,57.30
2018-04-14T14:36:06.979Z,56.30
2018-04-14T14:38:35.238Z,55.80
2018-04-14T14:41:03.500Z,57.00
2018-04-14T14:43:32.514Z,57.10
2018-04-14T14:46:00.768Z,56.70
2018-04-14T14:48:29.068Z,52.80
2018-04-14T14:50:58.062Z,53.10
2018-04-14T14:53:26.317Z,53.20
2018-04-14T14:55:54.581Z,51.90
2018-04-14T14:58:23.632Z,53.10
2018-04-14T15:00:51.893Z,52.80
2018-04-14T15:03:20.178Z,52.90
2018-04-14T15:05:48.449Z,53.50
2018-04-14T15:08:16.714Z,51.50
2018-04-14T15:10:44.961Z,51.00
2018-04-14T15:13:13.222Z,49.30
2018-04-14T15:15:42.237Z,50.80
2018-04-14T15:18:10.499Z,50.80
2018-04-14T15:20:38.766Z,49.40
2018-04-14T15:23:07.025Z,48.50
2018-04-14T15:25:35.288Z,48.60
2018-04-14T15:28:04.239Z,48.00
2018-04-14T15:30:32.485Z,47.80
2018-04-14T15:33:00.756Z,47.30
2018-04-14T15:35:29.821Z,46.70
2018-04-14T15:37:58.096Z,46.90
2018-04-14T15:40:26.360Z,47.50
2018-04-14T15:42:54.608Z,46.40
2018-04-14T15:45:22.898Z,44.90
2018-04-14T15:47:51.173Z,44.40
2018-04-14T15:50:19.430Z,46.50
2018-04-14T15:52:47.690Z,45.80
2018-04-14T15:55:15.946Z,46.00
2018-04-14T15:57:44.213Z,45.50
2018-04-14T16:00:12.478Z,46.80
2018-04-14T16:02:41.303Z,48.70
2018-04-14T16:05:10.329Z,49.30
2018-04-14T16:07:38.587Z,49.10
2018-04-14T16:10:06.866Z,51.00
2018-04-14T16:12:35.112Z,51.20
2018-04-14T16:15:03.379Z,50.90
2018-04-14T16:17:31.655Z,51.50
2018-04-14T16:19:59.910Z,53.40
2018-04-14T16:22:28.765Z,54.30
2018-04-14T16:24:57.060Z,54.00
2018-04-14T16:27:25.319Z,53.60
2018-04-14T16:29:54.493Z,54.90
2018-04-14T16:32:23.539Z,57.70
2018-04-14T16:34:51.797Z,57.60
2018-04-14T16:37:20.056Z,59.80
2018-04-14T16:39:48.511Z,60.10
2018-04-14T16:42:18.251Z,62.10
2018-04-14T16:44:46.801Z,62.00
2018-04-14T16:47:15.716Z,63.70
2018-04-14T16:49:44.869Z,65.80
2018-04-14T16:52:13.120Z,68.60
2018-04-14T16:54:42.217Z,70.60
2018-04-14T16:57:11.254Z,74.00
2018-04-14T16:59:40.274Z,75.90
2018-04-14T17:02:08.528Z,75.80
2018-04-14T17:04:36.778Z,78.50
2018-04-14T17:07:05.032Z,79.20
2018-04-14T17:09:33.289Z,81.40
2018-04-14T17:12:01.544Z,83.20
2018-04-14T17:14:29.798Z,82.70
2018-04-14T17:16:58.053Z,83.50
2018-04-14T17:19:26.304Z,85.40
2018-04-14T17:21:54.560Z,86.10
2018-04-14T17:24:22.821Z,86.10
2018-04-14T17:26:51.837Z,90.50
2018-04-14T17:29:20.086Z,90.50
2018-04-14T17:31:49.117Z,93.00
2018-04-14T17:34:17.479Z,93.00
2018-04-14T17:36:45.721Z,93.60
2018-04-14T17:39:21.902Z,93.50
2018-04-14T17:41:50.158Z,93.50
2018-04-14T17:44:19.233Z,93.50
2018-04-14T17:46:47.428Z,93.50
2018-04-14T17:49:16.453Z,95.00
2018-04-14T17:51:44.692Z,95.00
2018-04-14T17:54:13.718Z,96.50
2018-04-14T17:56:41.961Z,96.50
2018-04-14T17:59:10.977Z,99.90
2018-04-14T18:01:39.584Z,99.90
2018-04-14T18:04:07.837Z,4.60
2018-04-14T18:06:36.080Z,1.00
2018-04-14T18:09:04.354Z,95.60
2018-04-14T18:11:32.606Z,99.90
2018-04-14T18:14:00.866Z,99.90
2018-04-14T18:16:29.125Z,99.50
2018-04-14T18:18:57.381Z,99.90
2018-04-14T18:21:26.389Z,99.90
2018-04-14T18:23:54.651Z,99.90
2018-04-14T18:26:23.663Z,99.90
2018-04-14T18:28:51.919Z,99.90
2018-04-14T18:31:20.217Z,99.90
2018-04-14T18:33:49.219Z,99.90
2018-04-14T18:36:17.471Z,99.90
2018-04-14T18:38:45.716Z,99.90
2018-04-14T18:41:14.746Z,99.90
2018-04-14T18:43:43.002Z,99.90
2018-04-14T18:46:12.030Z,99.90
2018-04-14T18:48:40.280Z,99.90
2018-04-14T18:51:08.544Z,99.90
2018-04-14T18:53:37.562Z,99.90
2018-04-14T18:56:05.818Z,99.90
2018-04-14T18:58:34.843Z,99.90
2018-04-14T19:01:03.095Z,99.90
2018-04-14T19:03:31.353Z,99.90
2018-04-14T19:06:00.374Z,99.90
2018-04-14T19:08:28.637Z,99.90
2018-04-14T19:10:56.902Z,99.90
2018-04-14T19:13:25.913Z,99.90
2018-04-14T19:15:54.185Z,99.90
2018-04-14T19:18:22.442Z,99.90
2018-04-14T19:20:51.485Z,99.90
2018-04-14T19:23:19.743Z,99.90
2018-04-14T19:25:47.992Z,99.90
2018-04-14T19:28:17.014Z,99.90
2018-04-14T19:30:45.265Z,99.90
2018-04-14T19:33:14.290Z,99.90
2018-04-14T19:35:42.538Z,99.90
2018-04-14T19:38:10.800Z,99.90
2018-04-14T19:40:39.812Z,99.90
2018-04-14T19:43:08.077Z,99.90
2018-04-14T19:45:37.084Z,99.90
2018-04-14T19:48:05.367Z,99.90
2018-04-14T19:50:33.608Z,99.90
2018-04-14T19:53:02.630Z,99.90
2018-04-14T19:55:30.880Z,99.90
2018-04-14T19:57:59.904Z,99.90
2018-04-14T20:00:28.160Z,99.90
2018-04-14T20:02:56.428Z,99.90
2018-04-14T20:05:25.453Z,99.90
2018-04-14T20:07:53.713Z,99.90
2018-04-14T20:10:21.965Z,99.90
2018-04-14T20:12:50.986Z,99.90
2018-04-14T20:15:19.237Z,99.90
2018-04-14T20:17:48.262Z,99.90
2018-04-14T20:20:16.509Z,99.90
2018-04-14T20:22:45.535Z,99.90
2018-04-14T20:25:13.787Z,99.90
2018-04-14T20:27:42.880Z,99.90
2018-04-14T20:30:11.140Z,99.90
2018-04-14T20:32:40.174Z,99.90
2018-04-14T20:35:08.425Z,99.90
2018-04-14T20:37:36.677Z,99.90
2018-04-14T20:40:04.942Z,99.90
2018-04-14T20:42:33.240Z,99.90
2018-04-14T20:45:02.276Z,99.90
2018-04-14T20:47:30.610Z,99.90
2018-04-14T20:49:58.869Z,99.90
2018-04-14T20:52:27.125Z,99.90
2018-04-14T20:54:56.157Z,99.90
2018-04-14T20:57:24.430Z,99.90
2018-04-14T20:59:52.703Z,99.90
2018-04-14T21:02:20.966Z,99.90
2018-04-14T21:04:49.232Z,99.90
2018-04-14T21:07:17.498Z,99.90
2018-04-14T21:09:45.769Z,99.90
2018-04-14T21:12:14.067Z,99.90
2018-04-14T21:14:42.375Z,99.90
2018-04-14T21:17:10.632Z,99.90
2018-04-14T21:19:38.893Z,99.90
2018-04-14T21:22:07.147Z,99.90
2018-04-14T21:24:35.421Z,99.90
2018-04-14T21:27:03.678Z,99.90
2018-04-14T21:29:31.939Z,99.90
2018-04-14T21:32:00.197Z,99.90
2018-04-14T21:34:29.240Z,99.90
2018-04-14T21:36:57.512Z,99.90
2018-04-14T21:39:25.783Z,99.90
2018-04-14T21:41:54.060Z,99.90
2018-04-14T21:44:22.329Z,99.90
2018-04-14T21:46:50.597Z,99.90
2018-04-14T21:49:18.870Z,99.90
2018-04-14T21:51:47.153Z,99.90
2018-04-14T21:54:15.427Z,99.90
2018-04-14T21:56:43.710Z,99.90
2018-04-14T21:59:12.099Z,99.90
2018-04-14T22:01:40.454Z,99.90
2018-04-14T22:04:08.714Z,99.90
2018-04-14T22:06:37.755Z,99.90
2018-04-14T22:09:06.757Z,99.90
2018-04-14T22:11:35.040Z,99.90
2018-04-14T22:14:03.298Z,99.90
2018-04-14T22:16:31.560Z,99.90
2018-04-14T22:18:59.816Z,99.90
2018-04-14T22:21:28.075Z,99.90
2018-04-14T22:23:57.098Z,99.90
2018-04-14T22:26:25.349Z,99.90
2018-04-14T22:28:53.606Z,99.90
2018-04-14T22:31:22.624Z,99.90
2018-04-14T22:33:50.896Z,99.90
2018-04-14T22:36:19.145Z,99.90
2018-04-14T22:38:48.170Z,99.90
2018-04-14T22:41:16.418Z,99.90
2018-04-14T22:43:45.444Z,99.90
2018-04-14T22:46:13.700Z,99.90
2018-04-14T22:48:42.721Z,99.90
2018-04-14T22:51:10.982Z,99.90
2018-04-14T22:53:39.236Z,99.90
2018-04-14T22:56:08.254Z,99.90
2018-04-14T22:58:36.516Z,99.90
2018-04-14T23:01:05.539Z,99.90
2018-04-14T23:03:33.796Z,99.90
2018-04-14T23:06:02.058Z,99.90
2018-04-14T23:08:31.104Z,99.90
2018-04-14T23:10:59.360Z,99.90
2018-04-14T23:13:27.633Z,99.90
2018-04-14T23:15:55.885Z,99.90
2018-04-14T23:18:24.136Z,99.90
2018-04-14T23:20:53.160Z,99.90
2018-04-14T23:23:21.420Z,99.90
2018-04-14T23:25:50.451Z,99.90
2018-04-14T23:28:18.705Z,99.90
2018-04-14T23:30:46.968Z,99.90
2018-04-14T23:33:15.998Z,99.90
2018-04-14T23:35:45.090Z,99.90
2018-04-14T23:38:13.346Z,99.90
2018-04-14T23:40:41.611Z,99.90
2018-04-14T23:43:09.874Z,99.90
2018-04-14T23:45:38.906Z,99.90
2018-04-14T23:48:07.183Z,99.90
2018-04-14T23:50:35.452Z,99.90
2018-04-14T23:53:03.716Z,99.90
2018-04-14T23:55:32.010Z,99.90
2018-04-14T23:58:00.264Z,99.90
